Aérodrome :
LOGIN :

S'inscrire | Disclaimer

   EN    FR    IT 

 










Légende :    VFR   VFR Marginal   IFR   IFR Intensif   IFR Très Intensif
Visi : 
Plafond : 
>= 8 km
>= 3000ft
5 à 8 km
1000 à 3000 ft
1500m à 5 km
500 à 1000 ft
800 à 1500m
200 à 500 ft
< 800m
< 200 ft
Symboles :   Orages  Brouillard  Fortes neiges  Fortes précipitations  Vent > 20 kt
SIGMETs :   Divers  Orages  Givrage  Turbulence  Onde Orograph.  Cendres Volcan.






- Altitude de l'aérodrome : 0 ft


ETEB - Ansbach Army Heliport

DERNIER METAR :
  • 151247Z AUTO 29014KT 9999 RA FEW009 BKN026 OVC033 10/10 A2969 RMK AO2 DZB02E07RAB07 CIG 026V034 SLP077 $

METARs EXPIRÉS :
  • 151202Z AUTO 24016G24KT 9999 -DZ BKN038 BKN046 12/08 A2965 RMK AO2 DZB02 SLP061 $
  • 151056Z AUTO 23018G22KT 9999 BKN037 12/09 A2964 RMK AO2 SLP055 T01180085 $
  • 150956Z AUTO 21011KT 9999 OVC048 11/10 A2963 RMK AO2 SLP054 T01080095 $

Prévision TAF périmée.



MET'MAP, la Météo Aéronautique d'un coup d'oeil ! - Copyright ORBIFLY Décembre 2007 - Disclaimer

ORBIFLY MET'MAP TEAM :

Programmation & Développement : Alexandra Zaïnal
Sur une idée originale de : Baudouin d'Aumeries
Assistance à la programmation : Marc-Olivier Méhu
Soutien technique & logistique : Manuel Goepfert

Contact : metmap@orbifly.com




SOURCES & CREDITS :

   NOAA